Time,TemperatureF,DewpointF,PressureIn,WindDirection,WindDirectionDegrees,WindSpeedMPH,WindSpeedGustMPH,Humidity,HourlyPrecipIn,Conditions,Clouds,dailyrainin,SoftwareType,DateUTC
2013-10-05 00:15:00,70.7,-34.4,29.94,East,90,2.2,-999.0,1,-99.99,,,0.00,Acu-Link.com,2013-10-05 04:15:00,
2013-10-05 00:30:00,70.5,-34.5,29.94,East,90,2.7,-999.0,1,-99.99,,,0.00,Acu-Link.com,2013-10-05 04:30:00,
2013-10-05 00:45:00,70.5,-34.5,29.94,East,90,2.7,-999.0,1,-99.99,,,0.00,Acu-Link.com,2013-10-05 04:45:00,
2013-10-05 01:01:00,70.3,-34.6,29.94,East,90,1.1,-999.0,1,-99.99,,,0.00,Acu-Link.com,2013-10-05 05:01:00,
2013-10-05 01:17:00,70.3,-34.6,29.94,East,90,3.7,-999.0,1,-99.99,,,0.00,Acu-Link.com,2013-10-05 05:17:00,
2013-10-05 01:32:00,70.3,-34.6,29.95,East,90,1.1,-999.0,1,-99.99,,,0.00,Acu-Link.com,2013-10-05 05:32:00,
2013-10-05 01:47:00,70.0,-34.8,29.94,East,90,1.1,-999.0,1,-99.99,,,0.00,Acu-Link.com,2013-10-05 05:47:00,
2013-10-05 02:02:00,70.0,-34.8,29.94,East,90,2.2,-999.0,1,-99.99,,,0.00,Acu-Link.com,2013-10-05 06:02:00,
2013-10-05 02:18:00,70.0,-34.8,29.94,East,90,2.2,-999.0,1,-99.99,,,0.00,Acu-Link.com,2013-10-05 06:18:00,
2013-10-05 02:33:00,69.8,-34.9,29.94,East,90,1.7,-999.0,1,-99.99,,,0.00,Acu-Link.com,2013-10-05 06:33:00,
2013-10-05 02:48:00,69.6,-35.1,29.94,East,90,3.2,-999.0,1,-99.99,,,0.00,Acu-Link.com,2013-10-05 06:48:00,
2013-10-05 03:12:00,69.6,-35.1,29.94,East,90,1.7,-999.0,1,-99.99,,,0.00,Acu-Link.com,2013-10-05 07:12:00,
2013-10-05 03:27:00,69.4,-35.2,29.94,ESE,112,1.7,-999.0,1,-99.99,,,0.00,Acu-Link.com,2013-10-05 07:27:00,
2013-10-05 03:43:00,69.4,-35.2,29.94,ESE,112,0.0,-999.0,1,-99.99,,,0.00,Acu-Link.com,2013-10-05 07:43:00,
2013-10-05 03:58:00,69.4,-35.2,29.94,ESE,112,2.7,-999.0,1,-99.99,,,0.00,Acu-Link.com,2013-10-05 07:58:00,
2013-10-05 04:13:00,69.1,-35.4,29.94,ESE,112,0.0,-999.0,1,-99.99,,,0.00,Acu-Link.com,2013-10-05 08:13:00,
2013-10-05 04:28:00,68.7,-35.6,29.94,ESE,112,0.0,-999.0,1,-99.99,,,0.00,Acu-Link.com,2013-10-05 08:28:00,
2013-10-05 04:44:00,68.7,-35.6,29.94,ESE,112,2.2,-999.0,1,-99.99,,,0.00,Acu-Link.com,2013-10-05 08:44:00,
2013-10-05 04:59:00,68.5,-35.7,29.94,ESE,112,2.7,-999.0,1,-99.99,,,0.00,Acu-Link.com,2013-10-05 08:59:00,
2013-10-05 05:14:00,68.4,-35.8,29.94,ESE,112,2.2,-999.0,1,-99.99,,,0.00,Acu-Link.com,2013-10-05 09:14:00,
2013-10-05 05:29:00,68.5,-35.7,29.94,ESE,112,1.7,-999.0,1,-99.99,,,0.00,Acu-Link.com,2013-10-05 09:29:00,
2013-10-05 05:44:00,68.4,-35.8,29.95,ESE,112,0.0,-999.0,1,-99.99,,,0.00,Acu-Link.com,2013-10-05 09:44:00,
2013-10-05 05:59:00,68.5,-35.7,29.94,ESE,112,1.7,-999.0,1,-99.99,,,0.00,Acu-Link.com,2013-10-05 09:59:00,
2013-10-05 06:14:00,68.5,-35.7,29.94,ESE,112,0.0,-999.0,1,-99.99,,,0.00,Acu-Link.com,2013-10-05 10:14:00,
2013-10-05 06:29:00,68.5,-35.7,29.95,ESE,112,0.0,-999.0,1,-99.99,,,0.00,Acu-Link.com,2013-10-05 10:29:00,
2013-10-05 06:44:00,68.7,-35.6,29.95,ESE,112,1.7,-999.0,1,-99.99,,,0.00,Acu-Link.com,2013-10-05 10:44:00,
2013-10-05 07:00:00,69.6,-35.1,29.96,ESE,112,1.7,-999.0,1,-99.99,,,0.00,Acu-Link.com,2013-10-05 11:00:00,
2013-10-05 07:15:00,69.4,-35.2,29.97,ESE,112,0.0,-999.0,1,-99.99,,,0.00,Acu-Link.com,2013-10-05 11:15:00,
2013-10-05 07:30:00,69.4,-35.2,29.96,ESE,112,0.0,-999.0,1,-99.99,,,0.00,Acu-Link.com,2013-10-05 11:30:00,
2013-10-05 07:45:00,69.6,-35.1,29.96,ESE,112,0.0,-999.0,1,-99.99,,,0.00,Acu-Link.com,2013-10-05 11:45:00,
2013-10-05 08:01:00,70.2,-34.7,29.95,ESE,112,1.1,-999.0,1,-99.99,,,0.00,Acu-Link.com,2013-10-05 12:01:00,
2013-10-05 08:16:00,71.4,-34.0,29.96,ESE,112,2.7,-999.0,1,-99.99,,,0.00,Acu-Link.com,2013-10-05 12:16:00,
2013-10-05 08:32:00,73.2,-32.9,29.96,ESE,112,1.7,-999.0,1,-99.99,,,0.00,Acu-Link.com,2013-10-05 12:32:00,
2013-10-05 08:47:00,73.8,-32.5,29.96,North,0,3.7,-999.0,1,-99.99,,,0.00,Acu-Link.com,2013-10-05 12:47:00,
2013-10-05 09:02:00,75.4,-31.6,29.97,NNW,337,0.0,-999.0,1,-99.99,,,0.00,Acu-Link.com,2013-10-05 13:02:00,
2013-10-05 09:17:00,75.7,-31.4,29.96,NNW,337,4.7,-999.0,1,-99.99,,,0.00,Acu-Link.com,2013-10-05 13:17:00,
2013-10-05 09:32:00,75.7,-31.4,29.97,North,0,4.2,-999.0,1,-99.99,,,0.00,Acu-Link.com,2013-10-05 13:32:00,
2013-10-05 09:47:00,76.6,-30.9,29.97,North,0,5.3,-999.0,1,-99.99,,,0.00,Acu-Link.com,2013-10-05 13:47:00,
2013-10-05 10:03:00,77.9,-30.1,29.97,NNW,337,3.7,-999.0,1,-99.99,,,0.00,Acu-Link.com,2013-10-05 14:03:00,
2013-10-05 10:18:00,78.6,54.2,29.97,NNW,337,3.2,-999.0,43,-99.99,,,0.00,Acu-Link.com,2013-10-05 14:18:00,
2013-10-05 10:34:00,79.7,69.4,29.96,North,0,2.2,-999.0,71,-99.99,,,0.00,Acu-Link.com,2013-10-05 14:34:00,
2013-10-05 10:49:00,80.6,10.9,29.96,North,0,2.2,-999.0,7,-99.99,,,0.00,Acu-Link.com,2013-10-05 14:49:00,
2013-10-05 11:04:00,81.1,-28.2,29.96,NNW,337,2.7,-999.0,1,-99.99,,,0.00,Acu-Link.com,2013-10-05 15:04:00,
2013-10-05 11:20:00,81.5,-27.9,29.96,NNW,337,2.7,-999.0,1,-99.99,,,0.00,Acu-Link.com,2013-10-05 15:20:00,
2013-10-05 11:35:00,80.8,-28.4,29.95,North,0,3.7,-999.0,1,-99.99,,,0.00,Acu-Link.com,2013-10-05 15:35:00,
2013-10-05 11:50:00,81.7,-27.8,29.94,North,0,3.2,-999.0,1,-99.99,,,0.00,Acu-Link.com,2013-10-05 15:50:00,
2013-10-05 12:06:00,80.4,-28.6,29.94,NNE,22,5.8,-999.0,1,-99.99,,,0.00,Acu-Link.com,2013-10-05 16:06:00,
2013-10-05 12:21:00,80.2,34.2,29.95,NE,45,5.8,-999.0,19,-99.99,,,0.00,Acu-Link.com,2013-10-05 16:21:00,
2013-10-05 12:36:00,79.3,77.4,29.94,NE,45,4.7,-999.0,94,-99.99,,,0.00,Acu-Link.com,2013-10-05 16:36:00,
2013-10-05 12:51:00,80.2,-28.7,29.94,NE,45,4.2,-999.0,1,-99.99,,,0.00,Acu-Link.com,2013-10-05 16:51:00,
2013-10-05 13:07:00,80.4,-28.6,29.93,NE,45,2.2,-999.0,1,-99.99,,,0.00,Acu-Link.com,2013-10-05 17:07:00,
2013-10-05 13:22:00,79.7,-29.0,29.92,ENE,67,5.3,-999.0,1,-99.99,,,0.00,Acu-Link.com,2013-10-05 17:22:00,
2013-10-05 13:37:00,80.2,-28.7,29.92,NE,45,6.3,-999.0,1,-99.99,,,0.00,Acu-Link.com,2013-10-05 17:37:00,
2013-10-05 13:52:00,80.6,-28.5,29.91,NE,45,4.7,-999.0,1,-99.99,,,0.00,Acu-Link.com,2013-10-05 17:52:00,
2013-10-05 14:07:00,79.3,75.4,29.90,ENE,67,4.7,-999.0,88,-99.99,,,0.00,Acu-Link.com,2013-10-05 18:07:00,
2013-10-05 14:22:00,80.2,68.7,29.91,ENE,67,2.7,-999.0,68,-99.99,,,0.00,Acu-Link.com,2013-10-05 18:22:00,
2013-10-05 14:38:00,79.5,27.8,29.90,ENE,67,2.7,-999.0,15,-99.99,,,0.00,Acu-Link.com,2013-10-05 18:38:00,
2013-10-05 14:53:00,80.4,-7.4,29.91,ENE,67,2.7,-999.0,3,-99.99,,,0.00,Acu-Link.com,2013-10-05 18:53:00,
2013-10-05 15:08:00,79.2,6.4,29.91,ENE,67,4.2,-999.0,6,-99.99,,,0.00,Acu-Link.com,2013-10-05 19:08:00,
2013-10-05 15:24:00,78.6,69.6,29.91,ENE,67,3.7,-999.0,74,-99.99,,,0.00,Acu-Link.com,2013-10-05 19:24:00,
2013-10-05 15:39:00,80.1,26.6,29.91,ENE,67,3.7,-999.0,14,-99.99,,,0.00,Acu-Link.com,2013-10-05 19:39:00,
2013-10-05 15:54:00,79.2,-16.3,29.90,ENE,67,3.2,-999.0,2,-99.99,,,0.00,Acu-Link.com,2013-10-05 19:54:00,
2013-10-05 16:09:00,80.1,-1.6,29.91,ENE,67,3.2,-999.0,4,-99.99,,,0.00,Acu-Link.com,2013-10-05 20:09:00,
2013-10-05 16:25:00,78.1,53.8,29.90,East,90,5.8,-999.0,43,-99.99,,,0.00,Acu-Link.com,2013-10-05 20:25:00,
2013-10-05 16:40:00,77.4,-30.4,29.90,East,90,3.7,-999.0,1,-99.99,,,0.00,Acu-Link.com,2013-10-05 20:40:00,
2013-10-05 16:56:00,77.7,-30.2,29.92,East,90,5.3,-999.0,1,-99.99,,,0.00,Acu-Link.com,2013-10-05 20:56:00,
2013-10-05 17:11:00,78.4,-29.8,29.91,East,90,1.7,-999.0,1,-99.99,,,0.00,Acu-Link.com,2013-10-05 21:11:00,
2013-10-05 17:26:00,79.0,-29.4,29.91,ESE,112,3.2,-999.0,1,-99.99,,,0.00,Acu-Link.com,2013-10-05 21:26:00,
2013-10-05 17:41:00,77.9,-30.1,29.91,ESE,112,4.7,-999.0,1,-99.99,,,0.00,Acu-Link.com,2013-10-05 21:41:00,
2013-10-05 17:56:00,75.9,-31.3,29.91,SSE,157,3.2,-999.0,1,-99.99,,,0.00,Acu-Link.com,2013-10-05 21:56:00,
2013-10-05 18:12:00,75.0,-31.8,29.92,SSE,157,3.7,-999.0,1,-99.99,,,0.00,Acu-Link.com,2013-10-05 22:12:00,
2013-10-05 18:27:00,74.1,-32.4,29.91,SSE,157,2.2,-999.0,1,-99.99,,,0.00,Acu-Link.com,2013-10-05 22:27:00,
2013-10-05 18:42:00,73.4,-32.8,29.92,SSE,157,2.7,-999.0,1,-99.99,,,0.00,Acu-Link.com,2013-10-05 22:42:00,
2013-10-05 18:57:00,73.0,-33.0,29.92,SSE,157,1.7,-999.0,1,-99.99,,,0.00,Acu-Link.com,2013-10-05 22:57:00,
2013-10-05 19:13:00,72.9,-33.1,29.92,SSE,157,2.2,-999.0,1,-99.99,,,0.00,Acu-Link.com,2013-10-05 23:13:00,
2013-10-05 19:28:00,72.7,-33.2,29.92,SSE,157,1.7,-999.0,1,-99.99,,,0.00,Acu-Link.com,2013-10-05 23:28:00,
2013-10-05 19:43:00,72.5,-33.3,29.91,SSE,157,0.0,-999.0,1,-99.99,,,0.00,Acu-Link.com,2013-10-05 23:43:00,
2013-10-05 19:59:00,72.3,-33.4,29.92,SSE,157,2.2,-999.0,1,-99.99,,,0.00,Acu-Link.com,2013-10-05 23:59:00,
2013-10-05 20:14:00,72.1,-33.6,29.92,SSE,157,2.2,-999.0,1,-99.99,,,0.00,Acu-Link.com,2013-10-06 00:14:00,
2013-10-05 20:29:00,72.0,-33.6,29.93,SSE,157,0.0,-999.0,1,-99.99,,,0.00,Acu-Link.com,2013-10-06 00:29:00,
2013-10-05 20:45:00,71.8,-33.7,29.92,SSE,157,0.0,-999.0,1,-99.99,,,0.00,Acu-Link.com,2013-10-06 00:45:00,
2013-10-05 21:00:00,71.4,-34.0,29.94,SSE,157,0.0,-999.0,1,-99.99,,,0.00,Acu-Link.com,2013-10-06 01:00:00,
2013-10-05 21:15:00,71.4,-34.0,29.93,SSE,157,0.0,-999.0,1,-99.99,,,0.00,Acu-Link.com,2013-10-06 01:15:00,
2013-10-05 21:30:00,71.1,-34.2,29.94,SSE,157,0.0,-999.0,1,-99.99,,,0.00,Acu-Link.com,2013-10-06 01:30:00,
2013-10-05 21:46:00,70.9,-34.3,29.94,SSE,157,0.0,-999.0,1,-99.99,,,0.00,Acu-Link.com,2013-10-06 01:46:00,
2013-10-05 22:01:00,70.7,-34.4,29.94,SSE,157,0.0,-999.0,1,-99.99,,,0.00,Acu-Link.com,2013-10-06 02:01:00,
2013-10-05 22:16:00,70.5,-34.5,29.95,SSE,157,0.0,-999.0,1,-99.99,,,0.00,Acu-Link.com,2013-10-06 02:16:00,
2013-10-05 22:31:00,70.5,-34.5,29.94,SSE,157,0.0,-999.0,1,-99.99,,,0.00,Acu-Link.com,2013-10-06 02:31:00,
2013-10-05 22:47:00,70.3,-34.6,29.95,SSE,157,0.0,-999.0,1,-99.99,,,0.00,Acu-Link.com,2013-10-06 02:47:00,
2013-10-05 23:02:00,70.2,-34.7,29.95,SSE,157,0.0,-999.0,1,-99.99,,,0.00,Acu-Link.com,2013-10-06 03:02:00,
2013-10-05 23:17:00,70.0,-34.8,29.95,SSE,157,0.0,-999.0,1,-99.99,,,0.00,Acu-Link.com,2013-10-06 03:17:00,
2013-10-05 23:33:00,69.8,-34.9,29.94,SSE,157,0.0,-999.0,1,-99.99,,,0.00,Acu-Link.com,2013-10-06 03:33:00,
2013-10-05 23:48:00,70.2,-34.7,29.94,SSE,157,0.0,-999.0,1,-99.99,,,0.00,Acu-Link.com,2013-10-06 03:48:00,